Search METAR Data

METAR Data for LHBP:

LHBP 241430Z 31010KT 9999 BKN011 OVC030 08/06 Q1004 NOSIG